Big Bear Station Historical Data
Daily Summary for July 15, 2019 Units:  English    Metric   Both
Next Day »
Daily Weekly Monthly Yearly Custom
  High: Low: Average:
Temperature: 86.9 °F 50.2 °F 66.9 °F
Dew Point: 47.7 °F 22.3 °F 35.9 °F
Humidity: 80% 12% 39%
Wind Speed: 5.8mph 0mph 0.2mph
Wind Gust: -999mph - -
Wind- - WSW
Pressure: 23.67 in 23.58 in -
Precipitation: 0 in    
Historical Graphs
 
 
Tabular Data for July 15, 2019
Time Temperature Dew Point Pressure Wind Wind Speed Wind Gust Humidity Rainfall Rate (Hourly)
00:12 55.9 °F 40 °F 23.67 in Calm   -999 mph 55% 0.00 in
00:27 55.4 °F 39 °F 23.67 in Calm   -999 mph 54% 0.00 in
00:43 55 °F 39.6 °F 23.66 in Calm   -999 mph 56% 0.00 in
00:58 55 °F 41.8 °F 23.66 in Calm   -999 mph 61% 0.00 in
01:13 54.5 °F 40 °F 23.66 in Calm   -999 mph 58% 0.00 in
01:28 54.5 °F 42.6 °F 23.66 in Calm   -999 mph 64% 0.00 in
01:44 53.8 °F 41.9 °F 23.65 in Calm   -999 mph 64% 0.00 in
01:59 53.8 °F 40.7 °F 23.66 in Calm   -999 mph 61% 0.00 in
02:14 53.4 °F 41.1 °F 23.65 in Calm   -999 mph 63% 0.00 in
02:29 52.9 °F 38.1 °F 23.65 in Calm   -999 mph 57% 0.00 in
02:44 52.7 °F 38.8 °F 23.64 in Calm   -999 mph 59% 0.00 in
03:00 52.5 °F 39 °F 23.64 in Calm   -999 mph 60% 0.00 in
03:15 52.5 °F 37.7 °F 23.64 in Calm   -999 mph 57% 0.00 in
03:30 52 °F 37.2 °F 23.64 in Calm   -999 mph 57% 0.00 in
03:45 52 °F 35.4 °F 23.64 in Calm   -999 mph 53% 0.00 in
04:00 51.6 °F 36.4 °F 23.64 in Calm   -999 mph 56% 0.00 in
04:16 51.6 °F 38.2 °F 23.64 in Calm   -999 mph 60% 0.00 in
04:31 51.3 °F 38.3 °F 23.64 in Calm   -999 mph 61% 0.00 in
04:46 51.1 °F 38.5 °F 23.64 in Calm   -999 mph 62% 0.00 in
05:01 50.7 °F 37.7 °F 23.64 in Calm   -999 mph 61% 0.00 in
05:17 50.5 °F 38.4 °F 23.64 in Calm   -999 mph 63% 0.00 in
05:32 50.4 °F 38.7 °F 23.64 in Calm   -999 mph 64% 0.00 in
05:47 50.2 °F 39.7 °F 23.64 in Calm   -999 mph 67% 0.00 in
06:02 50.2 °F 41.5 °F 23.64 in Calm   -999 mph 72% 0.00 in
06:17 50.2 °F 43.3 °F 23.64 in Calm   -999 mph 77% 0.00 in
06:33 50.2 °F 43.6 °F 23.64 in Calm   -999 mph 78% 0.00 in
06:48 50.4 °F 43.8 °F 23.64 in Calm   -999 mph 78% 0.00 in
07:03 50.5 °F 44.2 °F 23.64 in Calm   -999 mph 79% 0.00 in
07:18 51.6 °F 45.6 °F 23.64 in Calm   -999 mph 80% 0.00 in
07:33 52.5 °F 45.8 °F 23.64 in Calm   -999 mph 78% 0.00 in
07:49 53.8 °F 46.8 °F 23.64 in Calm   -999 mph 77% 0.00 in
08:04 56.8 °F 45.2 °F 23.65 in Calm   -999 mph 65% 0.00 in
08:19 60.3 °F 28.7 °F 23.64 in Calm   -999 mph 30% 0.00 in
08:34 64.6 °F 28 °F 23.64 in Calm   -999 mph 25% 0.00 in
08:49 66.4 °F 29.5 °F 23.65 in Calm   -999 mph 25% 0.00 in
09:05 68.2 °F 26.8 °F 23.64 in Calm   -999 mph 21% 0.00 in
09:20 69.6 °F 26.7 °F 23.64 in Calm   -999 mph 20% 0.00 in
09:35 71.1 °F 28 °F 23.64 in Calm   -999 mph 20% 0.00 in
09:50 72.5 °F 25.2 °F 23.64 in Calm   -999 mph 17% 0.00 in
10:05 73.9 °F 24.9 °F 23.64 in Calm   -999 mph 16% 0.00 in
10:21 74.7 °F 22.3 °F 23.64 in Calm   -999 mph 14% 0.00 in
10:36 75.2 °F 22.7 °F 23.64 in Calm   -999 mph 14% 0.00 in
10:51 75.9 °F 23.3 °F 23.64 in Calm   -999 mph 14% 0.00 in
11:06 77 °F 27.4 °F 23.64 in WNW 3.2 mph -999 mph 16% 0.00 in
11:21 77.5 °F 24.5 °F 23.64 in Calm   -999 mph 14% 0.00 in
11:37 78.3 °F 23.4 °F 23.65 in Calm   -999 mph 13% 0.00 in
11:52 79.3 °F 24.2 °F 23.65 in Calm   -999 mph 13% 0.00 in
12:07 79.9 °F 26.4 °F 23.65 in Calm   -999 mph 14% 0.00 in
12:22 81 °F 25.5 °F 23.65 in SSW 5.8 mph -999 mph 13% 0.00 in
12:38 82.2 °F 26.5 °F 23.64 in ESE 1.1 mph -999 mph 13% 0.00 in
12:53 82.6 °F 28.6 °F 23.64 in Calm   -999 mph 14% 0.00 in
13:08 83.7 °F 29.4 °F 23.64 in Calm   -999 mph 14% 0.00 in
13:23 83.7 °F 25.7 °F 23.64 in Calm   -999 mph 12% 0.00 in
13:38 84.9 °F 30.4 °F 23.64 in Calm   -999 mph 14% 0.00 in
13:54 84.9 °F 28.6 °F 23.63 in Calm   -999 mph 13% 0.00 in
14:09 84 °F 25.9 °F 23.63 in Calm   -999 mph 12% 0.00 in
14:24 84.6 °F 26.4 °F 23.63 in Calm   -999 mph 12% 0.00 in
14:40 84 °F 31.4 °F 23.62 in Calm   -999 mph 15% 0.00 in
14:55 83.8 °F 29.5 °F 23.62 in Calm   -999 mph 14% 0.00 in
15:10 83.1 °F 29 °F 23.61 in Calm   -999 mph 14% 0.00 in
15:25 84 °F 31.4 °F 23.61 in Calm   -999 mph 15% 0.00 in
15:41 83.7 °F 31.1 °F 23.61 in Calm   -999 mph 15% 0.00 in
15:56 82.4 °F 30.1 °F 23.61 in NNW 4.7 mph -999 mph 15% 0.00 in
16:11 83.8 °F 34.3 °F 23.61 in Calm   -999 mph 17% 0.00 in
16:26 83.3 °F 30.8 °F 23.60 in Calm   -999 mph 15% 0.00 in
16:41 82.6 °F 33.4 °F 23.60 in Calm   -999 mph 17% 0.00 in
16:57 86.9 °F 36.8 °F 23.59 in Calm   -999 mph 17% 0.00 in
17:12 86 °F 39 °F 23.59 in Calm   -999 mph 19% 0.00 in
17:27 84 °F 41.1 °F 23.59 in Calm   -999 mph 22% 0.00 in
17:42 84 °F 43.3 °F 23.58 in Calm   -999 mph 24% 0.00 in
17:57 84.4 °F 47.7 °F 23.58 in Calm   -999 mph 28% 0.00 in
18:13 82.9 °F 44.5 °F 23.58 in Calm   -999 mph 26% 0.00 in
18:28 81 °F 44.8 °F 23.58 in Calm   -999 mph 28% 0.00 in
18:43 80.6 °F 44.5 °F 23.58 in Calm   -999 mph 28% 0.00 in
18:58 81.5 °F 46.2 °F 23.58 in Calm   -999 mph 29% 0.00 in
19:14 78.6 °F 45.4 °F 23.58 in Calm   -999 mph 31% 0.00 in
19:29 74.1 °F 45.4 °F 23.58 in Calm   -999 mph 36% 0.00 in
19:45 71.1 °F 45.6 °F 23.58 in Calm   -999 mph 40% 0.00 in
20:00 69.1 °F 43.8 °F 23.58 in Calm   -999 mph 40% 0.00 in
20:15 68 °F 43.4 °F 23.58 in Calm   -999 mph 41% 0.00 in
20:30 65.7 °F 43.8 °F 23.58 in Calm   -999 mph 45% 0.00 in
20:45 63.9 °F 42.1 °F 23.58 in Calm   -999 mph 45% 0.00 in
21:01 62.8 °F 41.1 °F 23.58 in Calm   -999 mph 45% 0.00 in
21:16 61.2 °F 40.3 °F 23.59 in Calm   -999 mph 46% 0.00 in
21:31 60.6 °F 38 °F 23.59 in Calm   -999 mph 43% 0.00 in
21:46 59.9 °F 37.3 °F 23.59 in Calm   -999 mph 43% 0.00 in
22:01 59.2 °F 39 °F 23.59 in Calm   -999 mph 47% 0.00 in
22:17 58.6 °F 36.7 °F 23.59 in Calm   -999 mph 44% 0.00 in
22:32 57.7 °F 36.5 °F 23.59 in Calm   -999 mph 45% 0.00 in
22:47 57 °F 37 °F 23.59 in Calm   -999 mph 47% 0.00 in
23:02 56.3 °F 35.2 °F 23.59 in Calm   -999 mph 45% 0.00 in
23:17 55 °F 35.1 °F 23.59 in Calm   -999 mph 47% 0.00 in
23:33 54.5 °F 33 °F 23.59 in Calm   -999 mph 44% 0.00 in
23:48 54.1 °F 30.9 °F 23.59 in Calm   -999 mph 41% 0.00 in
Big Bear CA Weather